»·PEaware :: N7914W KSBP-KTOA

N7914W :: KSBP-KTOA

FLIGHT INFORMATION

Flight Status: Arrived
Operator: Privately registered:
United States
More flights under this callsign
Pilot: Andrew M. (139)
Aircraft: CESSNA 172 SKYHAWK
(C172)
More flights by this aircraft type
Origin: KSBP San Luis Co Regl
United States
Destination: KTOA Zamperini
United States
More flights between these airports :: More routes between these airports
Route: RZS V186 ADAMM V394 SLI
File this flight plan on PilotEdge
Remarks:
Altitude:
(Current/Filed)
9,000ft
Speed:
(Current/Filed)
110kts
Departed: 09-Feb-19 08:11 PM
Arrived: 09-Feb-19 09:47 PM
Distance/Time
Traveled:
143nm/1:35
Distance/Time
To Go:
Arrived

Flight Plot

Page will automatically refresh every two minutes.


Map Options




Map Legend


Flown Route
Filed Route
Departure Airport
Arrival Airport
Navaid (VOR, NDB)
Fix

Horizontal Profiles

Position Reports

Time Latitude Longitude Heading Altitude Ground
Speed
09-Feb-19 19:42 35.237867 -120.645043 90 216ft 0kts
09-Feb-19 19:43 35.237867 -120.645041 90 216ft 0kts
09-Feb-19 19:44 35.237867 -120.645041 90 216ft 0kts
09-Feb-19 19:45 35.237867 -120.645041 90 216ft 0kts
09-Feb-19 19:46 35.237867 -120.645041 90 216ft 0kts
09-Feb-19 19:49 35.237867 -120.645043 90 216ft 0kts
09-Feb-19 19:50 35.237867 -120.645043 90 216ft 0kts
09-Feb-19 19:51 35.237867 -120.645043 90 216ft 0kts
09-Feb-19 19:52 35.237867 -120.645043 90 216ft 0kts
09-Feb-19 19:53 35.237867 -120.645043 90 216ft 0kts
09-Feb-19 19:54 35.237867 -120.645043 90 216ft 0kts
09-Feb-19 19:55 35.237867 -120.645043 90 216ft 0kts
09-Feb-19 19:56 35.237867 -120.645043 90 216ft 0kts
09-Feb-19 19:57 35.237867 -120.645043 90 216ft 0kts
09-Feb-19 19:58 35.237867 -120.645043 90 216ft 0kts
09-Feb-19 19:59 35.237867 -120.645043 90 216ft 0kts
09-Feb-19 20:00 35.237867 -120.645043 90 216ft 0kts
09-Feb-19 20:01 35.237867 -120.645043 90 216ft 0kts
09-Feb-19 20:02 35.237867 -120.645043 90 216ft 0kts
09-Feb-19 20:03 35.237682 -120.643962 96 216ft 7kts
09-Feb-19 20:04 35.237658 -120.642977 55 216ft 0kts
09-Feb-19 20:05 35.237779 -120.640811 88 216ft 13kts
09-Feb-19 20:06 35.236409 -120.637482 124 216ft 13kts
09-Feb-19 20:07 35.234610 -120.634223 122 216ft 10kts
09-Feb-19 20:08 35.233172 -120.632303 210 216ft 0kts
09-Feb-19 20:09 35.232798 -120.632936 271 216ft 7kts
09-Feb-19 20:11 35.242678 -120.649090 307 664ft 77kts
09-Feb-19 20:12 35.254329 -120.672725 297 1416ft 83kts
09-Feb-19 20:13 35.266099 -120.696308 298 2175ft 78kts
09-Feb-19 20:14 35.280469 -120.717183 301 2913ft 77kts
09-Feb-19 20:15 35.273655 -120.731099 160 3539ft 83kts
09-Feb-19 20:16 35.258653 -120.706108 130 4037ft 97kts
09-Feb-19 20:17 35.242087 -120.679472 135 4585ft 96kts
09-Feb-19 20:18 35.225264 -120.655500 139 5171ft 89kts
09-Feb-19 20:19 35.208578 -120.633292 140 5661ft 89kts
09-Feb-19 20:20 35.190888 -120.610359 140 6083ft 96kts
09-Feb-19 20:21 35.172516 -120.586787 140 6568ft 93kts
09-Feb-19 20:22 35.154802 -120.562417 137 7086ft 100kts
09-Feb-19 20:23 35.135548 -120.536641 139 7597ft 104kts
09-Feb-19 20:24 35.115085 -120.511029 142 8109ft 105kts
09-Feb-19 20:25 35.094393 -120.485913 141 8614ft 102kts
09-Feb-19 20:26 35.075250 -120.462372 141 8987ft 104kts
09-Feb-19 20:27 35.051945 -120.433923 141 8975ft 122kts
09-Feb-19 20:28 35.028160 -120.405179 140 8976ft 118kts
09-Feb-19 20:29 35.004917 -120.376759 140 8976ft 118kts
09-Feb-19 20:29 34.985998 -120.351941 136 8976ft 124kts
09-Feb-19 20:31 34.959151 -120.316454 138 8971ft 126kts
09-Feb-19 20:32 34.934871 -120.285533 141 8973ft 127kts
09-Feb-19 20:32 34.912076 -120.259637 141 8974ft 139kts
09-Feb-19 20:33 34.883872 -120.226280 138 8974ft 139kts
09-Feb-19 20:34 34.858278 -120.193965 139 8972ft 129kts
09-Feb-19 20:35 34.833134 -120.163388 142 8973ft 126kts
09-Feb-19 20:36 34.807888 -120.133774 140 8974ft 125kts
09-Feb-19 20:37 34.782022 -120.105642 146 8974ft 124kts
09-Feb-19 20:38 34.756212 -120.077330 141 8974ft 125kts
09-Feb-19 20:39 34.731290 -120.047228 139 8974ft 126kts
09-Feb-19 20:40 34.706899 -120.016619 137 8971ft 124kts
09-Feb-19 20:41 34.683768 -119.986834 138 8973ft 119kts
09-Feb-19 20:42 34.660725 -119.958022 138 8973ft 118kts
09-Feb-19 20:43 34.636662 -119.927827 138 8975ft 135kts
09-Feb-19 20:44 34.609609 -119.894162 138 8973ft 141kts
09-Feb-19 20:45 34.582039 -119.860089 138 8973ft 142kts
09-Feb-19 20:46 34.554281 -119.825848 138 8973ft 142kts
09-Feb-19 20:47 34.526814 -119.793512 139 8974ft 135kts
09-Feb-19 20:48 34.502330 -119.759171 126 8975ft 135kts
09-Feb-19 20:49 34.481385 -119.721048 126 8975ft 135kts
09-Feb-19 20:50 34.460975 -119.682487 123 8975ft 137kts
09-Feb-19 20:51 34.440559 -119.643107 125 8974ft 138kts
09-Feb-19 20:52 34.419496 -119.603971 125 8974ft 138kts
09-Feb-19 20:53 34.396113 -119.563854 126 8976ft 150kts
09-Feb-19 20:54 34.372680 -119.521315 125 8976ft 152kts
09-Feb-19 20:55 34.350549 -119.479627 124 8972ft 135kts
09-Feb-19 20:56 34.331228 -119.443235 125 8974ft 125kts
09-Feb-19 20:57 34.318288 -119.404091 88 8978ft 134kts
09-Feb-19 20:58 34.320397 -119.358611 83 8976ft 136kts
09-Feb-19 20:59 34.323553 -119.314312 83 8973ft 135kts
09-Feb-19 21:00 34.326975 -119.268997 83 8973ft 135kts
09-Feb-19 21:01 34.331301 -119.222925 81 8973ft 144kts
09-Feb-19 21:02 34.335701 -119.173748 83 8972ft 148kts
09-Feb-19 21:03 34.339234 -119.124168 84 8972ft 145kts
09-Feb-19 21:04 34.342805 -119.075202 83 8974ft 145kts
09-Feb-19 21:05 34.346542 -119.027573 83 8972ft 138kts
09-Feb-19 21:06 34.349858 -118.981732 84 8971ft 134kts
09-Feb-19 21:07 34.352894 -118.937727 83 8970ft 130kts
09-Feb-19 21:08 34.356053 -118.894218 84 8968ft 129kts
09-Feb-19 21:09 34.346861 -118.853015 113 8967ft 128kts
09-Feb-19 21:10 34.334012 -118.814046 114 8965ft 128kts
09-Feb-19 21:11 34.323751 -118.783637 114 8965ft 128kts
09-Feb-19 21:12 34.314291 -118.755760 114 8965ft 128kts
09-Feb-19 21:13 34.303314 -118.723205 113 8968ft 134kts
09-Feb-19 21:14 34.290064 -118.682725 114 8965ft 148kts
09-Feb-19 21:15 34.276089 -118.643531 116 8964ft 140kts
09-Feb-19 21:16 34.264562 -118.611265 114 8966ft 137kts
09-Feb-19 21:17 34.253738 -118.579068 114 8965ft 135kts
09-Feb-19 21:18 34.243404 -118.547315 114 8964ft 129kts
09-Feb-19 21:19 34.229783 -118.508994 117 8968ft 130kts
09-Feb-19 21:20 34.216093 -118.467324 112 8971ft 134kts
09-Feb-19 21:21 34.203229 -118.424810 112 8974ft 135kts
09-Feb-19 21:22 34.191586 -118.387647 126 8968ft 136kts
09-Feb-19 21:23 34.164922 -118.364428 151 8982ft 119kts
09-Feb-19 21:24 34.139163 -118.343156 151 8985ft 128kts
09-Feb-19 21:25 34.108126 -118.317398 151 8993ft 139kts
09-Feb-19 21:26 34.075848 -118.290703 150 8998ft 138kts
09-Feb-19 21:27 34.042559 -118.267427 159 8719ft 139kts
09-Feb-19 21:28 34.007755 -118.248288 160 8212ft 137kts
09-Feb-19 21:29 33.977169 -118.231730 160 7765ft 137kts
09-Feb-19 21:30 33.950948 -118.217714 160 7381ft 136kts
09-Feb-19 21:31 33.919661 -118.203285 164 6922ft 132kts
09-Feb-19 21:32 33.892025 -118.189370 158 6509ft 132kts
09-Feb-19 21:33 33.867459 -118.174499 156 6000ft 131kts
09-Feb-19 21:34 33.843463 -118.159677 156 5453ft 124kts
09-Feb-19 21:35 33.822144 -118.146546 156 4782ft 107kts
09-Feb-19 21:36 33.802539 -118.134559 155 4101ft 103kts
09-Feb-19 21:37 33.777900 -118.119866 154 3230ft 102kts
09-Feb-19 21:38 33.753081 -118.124430 224 2407ft 101kts
09-Feb-19 21:39 33.730996 -118.150660 224 1995ft 86kts
09-Feb-19 21:40 33.707434 -118.180887 258 1996ft 96kts
09-Feb-19 21:41 33.718159 -118.212646 306 1994ft 70kts
09-Feb-19 21:42 33.736484 -118.239015 308 2003ft 103kts
09-Feb-19 21:43 33.762220 -118.276127 310 1716ft 100kts
09-Feb-19 21:44 33.784313 -118.309818 308 732ft 76kts
09-Feb-19 21:45 33.798174 -118.330724 307 209ft 56kts
09-Feb-19 21:46 33.804497 -118.340251 306 95ft 16kts
09-Feb-19 21:47 33.805935 -118.344037 289 92ft 10kts
09-Feb-19 21:48 33.804856 -118.344833 128 96ft 10kts
09-Feb-19 21:49 33.802883 -118.342330 216 102ft 6kts

Navigation Log

Ident Type
Flight plan parsing failed, navigation log unavailable